sensor_id;sensor_type;location;lat;lon;timestamp;temperature;humidity
20174;DHT22;10246;50.620;7.232;2022-08-16T00:02:08;20.10;1.00
20174;DHT22;10246;50.620;7.232;2022-08-16T00:04:36;20.00;1.00
20174;DHT22;10246;50.620;7.232;2022-08-16T00:07:03;20.00;1.00
20174;DHT22;10246;50.620;7.232;2022-08-16T00:09:30;20.00;1.00
20174;DHT22;10246;50.620;7.232;2022-08-16T00:11:57;20.00;1.00
20174;DHT22;10246;50.620;7.232;2022-08-16T00:14:28;19.90;1.00
20174;DHT22;10246;50.620;7.232;2022-08-16T00:16:55;19.90;1.00
20174;DHT22;10246;50.620;7.232;2022-08-16T00:19:25;19.90;1.00
20174;DHT22;10246;50.620;7.232;2022-08-16T00:21:54;19.90;1.00
20174;DHT22;10246;50.620;7.232;2022-08-16T00:24:22;19.90;1.00
20174;DHT22;10246;50.620;7.232;2022-08-16T00:26:50;20.00;1.00
20174;DHT22;10246;50.620;7.232;2022-08-16T00:29:17;20.00;1.00
20174;DHT22;10246;50.620;7.232;2022-08-16T00:31:46;20.00;1.00
20174;DHT22;10246;50.620;7.232;2022-08-16T00:34:14;20.10;1.00
20174;DHT22;10246;50.620;7.232;2022-08-16T00:36:41;20.10;1.00
20174;DHT22;10246;50.620;7.232;2022-08-16T00:39:12;20.10;1.00
20174;DHT22;10246;50.620;7.232;2022-08-16T00:41:39;20.10;1.00
20174;DHT22;10246;50.620;7.232;2022-08-16T00:44:06;20.10;1.00
20174;DHT22;10246;50.620;7.232;2022-08-16T00:46:38;20.10;1.00
20174;DHT22;10246;50.620;7.232;2022-08-16T00:49:09;20.10;1.00
20174;DHT22;10246;50.620;7.232;2022-08-16T00:51:36;20.10;1.00
20174;DHT22;10246;50.620;7.232;2022-08-16T00:54:03;20.20;1.00
20174;DHT22;10246;50.620;7.232;2022-08-16T00:56:35;20.40;1.00
20174;DHT22;10246;50.620;7.232;2022-08-16T00:59:03;20.20;1.00
20174;DHT22;10246;50.620;7.232;2022-08-16T01:01:30;20.00;1.00
20174;DHT22;10246;50.620;7.232;2022-08-16T01:03:57;20.00;1.00
20174;DHT22;10246;50.620;7.232;2022-08-16T01:06:25;20.00;1.00
20174;DHT22;10246;50.620;7.232;2022-08-16T01:08:54;20.00;1.00
20174;DHT22;10246;50.620;7.232;2022-08-16T01:11:23;20.00;1.00
20174;DHT22;10246;50.620;7.232;2022-08-16T01:13:55;20.10;1.00
20174;DHT22;10246;50.620;7.232;2022-08-16T01:16:25;20.20;1.00
20174;DHT22;10246;50.620;7.232;2022-08-16T01:19:09;20.20;1.00
20174;DHT22;10246;50.620;7.232;2022-08-16T01:21:42;20.20;1.00
20174;DHT22;10246;50.620;7.232;2022-08-16T01:24:23;20.20;1.00
20174;DHT22;10246;50.620;7.232;2022-08-16T01:26:55;20.30;1.00
20174;DHT22;10246;50.620;7.232;2022-08-16T01:29:30;20.30;1.00
20174;DHT22;10246;50.620;7.232;2022-08-16T01:31:58;20.30;1.00
20174;DHT22;10246;50.620;7.232;2022-08-16T01:34:25;20.40;1.00
20174;DHT22;10246;50.620;7.232;2022-08-16T01:36:58;20.30;1.00
20174;DHT22;10246;50.620;7.232;2022-08-16T01:39:27;20.30;1.00
20174;DHT22;10246;50.620;7.232;2022-08-16T01:41:54;20.20;1.00
20174;DHT22;10246;50.620;7.232;2022-08-16T01:44:20;20.20;1.00
20174;DHT22;10246;50.620;7.232;2022-08-16T01:46:48;20.20;1.00
20174;DHT22;10246;50.620;7.232;2022-08-16T01:49:19;20.20;1.00
20174;DHT22;10246;50.620;7.232;2022-08-16T01:51:50;20.40;1.00
20174;DHT22;10246;50.620;7.232;2022-08-16T01:54:19;20.50;1.00
20174;DHT22;10246;50.620;7.232;2022-08-16T01:56:47;20.40;1.00
20174;DHT22;10246;50.620;7.232;2022-08-16T01:59:15;20.30;1.00
20174;DHT22;10246;50.620;7.232;2022-08-16T02:01:42;20.20;1.00
20174;DHT22;10246;50.620;7.232;2022-08-16T02:04:09;20.20;1.00
20174;DHT22;10246;50.620;7.232;2022-08-16T02:06:36;20.20;1.00
20174;DHT22;10246;50.620;7.232;2022-08-16T02:09:05;20.30;1.00
20174;DHT22;10246;50.620;7.232;2022-08-16T02:11:33;20.30;1.00
20174;DHT22;10246;50.620;7.232;2022-08-16T02:14:02;20.40;1.00
20174;DHT22;10246;50.620;7.232;2022-08-16T02:16:29;20.40;1.00
20174;DHT22;10246;50.620;7.232;2022-08-16T02:18:55;20.40;1.00
20174;DHT22;10246;50.620;7.232;2022-08-16T02:21:22;20.40;1.00
20174;DHT22;10246;50.620;7.232;2022-08-16T02:23:49;20.30;1.00
20174;DHT22;10246;50.620;7.232;2022-08-16T02:26:15;20.30;1.00
20174;DHT22;10246;50.620;7.232;2022-08-16T02:28:42;20.30;1.00
20174;DHT22;10246;50.620;7.232;2022-08-16T02:31:12;20.30;1.00
20174;DHT22;10246;50.620;7.232;2022-08-16T02:33:41;20.30;1.00
20174;DHT22;10246;50.620;7.232;2022-08-16T02:36:09;20.30;1.00
20174;DHT22;10246;50.620;7.232;2022-08-16T02:38:37;20.30;1.00
20174;DHT22;10246;50.620;7.232;2022-08-16T02:41:06;20.30;1.00
20174;DHT22;10246;50.620;7.232;2022-08-16T02:43:34;20.20;1.00
20174;DHT22;10246;50.620;7.232;2022-08-16T02:46:02;20.20;1.00
20174;DHT22;10246;50.620;7.232;2022-08-16T02:48:31;20.20;1.00
20174;DHT22;10246;50.620;7.232;2022-08-16T02:50:58;20.10;1.00
20174;DHT22;10246;50.620;7.232;2022-08-16T02:53:25;20.10;1.00
20174;DHT22;10246;50.620;7.232;2022-08-16T02:55:53;20.00;1.00
20174;DHT22;10246;50.620;7.232;2022-08-16T02:58:20;20.00;1.00
20174;DHT22;10246;50.620;7.232;2022-08-16T03:00:48;20.10;1.00
20174;DHT22;10246;50.620;7.232;2022-08-16T03:03:14;20.00;1.00
20174;DHT22;10246;50.620;7.232;2022-08-16T03:05:43;20.00;1.00
20174;DHT22;10246;50.620;7.232;2022-08-16T03:08:10;20.00;1.00
20174;DHT22;10246;50.620;7.232;2022-08-16T03:10:37;20.00;1.00
20174;DHT22;10246;50.620;7.232;2022-08-16T03:13:04;20.00;1.00
20174;DHT22;10246;50.620;7.232;2022-08-16T03:15:31;19.90;1.00
20174;DHT22;10246;50.620;7.232;2022-08-16T03:17:58;19.90;1.00
20174;DHT22;10246;50.620;7.232;2022-08-16T03:20:25;19.90;1.00
20174;DHT22;10246;50.620;7.232;2022-08-16T03:22:53;19.90;1.00
20174;DHT22;10246;50.620;7.232;2022-08-16T03:25:20;19.90;1.00
20174;DHT22;10246;50.620;7.232;2022-08-16T03:27:47;19.80;1.00
20174;DHT22;10246;50.620;7.232;2022-08-16T03:30:17;19.80;1.00
20174;DHT22;10246;50.620;7.232;2022-08-16T03:32:44;19.80;1.00
20174;DHT22;10246;50.620;7.232;2022-08-16T03:35:11;19.80;1.00
20174;DHT22;10246;50.620;7.232;2022-08-16T03:37:38;19.70;1.00
20174;DHT22;10246;50.620;7.232;2022-08-16T03:40:11;19.70;1.00
20174;DHT22;10246;50.620;7.232;2022-08-16T03:42:38;19.70;1.00
20174;DHT22;10246;50.620;7.232;2022-08-16T03:45:05;19.60;1.00
20174;DHT22;10246;50.620;7.232;2022-08-16T03:47:33;19.60;1.00
20174;DHT22;10246;50.620;7.232;2022-08-16T03:50:00;19.50;1.00
20174;DHT22;10246;50.620;7.232;2022-08-16T03:52:27;19.40;1.00
20174;DHT22;10246;50.620;7.232;2022-08-16T03:54:54;19.30;1.00
20174;DHT22;10246;50.620;7.232;2022-08-16T03:57:22;19.20;1.00
20174;DHT22;10246;50.620;7.232;2022-08-16T03:59:49;19.20;1.00
20174;DHT22;10246;50.620;7.232;2022-08-16T04:02:16;19.20;1.00
20174;DHT22;10246;50.620;7.232;2022-08-16T04:04:43;19.20;1.00
20174;DHT22;10246;50.620;7.232;2022-08-16T04:07:10;19.20;1.00
20174;DHT22;10246;50.620;7.232;2022-08-16T04:09:37;19.10;1.00
20174;DHT22;10246;50.620;7.232;2022-08-16T04:12:04;19.10;1.00
20174;DHT22;10246;50.620;7.232;2022-08-16T04:14:33;19.10;1.00
20174;DHT22;10246;50.620;7.232;2022-08-16T04:17:00;19.10;1.00
20174;DHT22;10246;50.620;7.232;2022-08-16T04:19:26;19.10;1.00
20174;DHT22;10246;50.620;7.232;2022-08-16T04:21:53;19.20;1.00
20174;DHT22;10246;50.620;7.232;2022-08-16T04:24:20;19.20;1.00
20174;DHT22;10246;50.620;7.232;2022-08-16T04:26:47;19.00;1.00
20174;DHT22;10246;50.620;7.232;2022-08-16T04:29:14;18.90;1.00
20174;DHT22;10246;50.620;7.232;2022-08-16T04:31:42;18.90;1.00
20174;DHT22;10246;50.620;7.232;2022-08-16T04:34:09;18.90;1.00
20174;DHT22;10246;50.620;7.232;2022-08-16T04:36:36;18.90;1.00
20174;DHT22;10246;50.620;7.232;2022-08-16T04:39:03;19.00;1.00
20174;DHT22;10246;50.620;7.232;2022-08-16T04:41:31;19.00;1.00
20174;DHT22;10246;50.620;7.232;2022-08-16T04:43:58;19.00;1.00
20174;DHT22;10246;50.620;7.232;2022-08-16T04:46:25;19.00;1.00
20174;DHT22;10246;50.620;7.232;2022-08-16T04:48:53;18.90;1.00
20174;DHT22;10246;50.620;7.232;2022-08-16T04:51:19;19.00;1.00
20174;DHT22;10246;50.620;7.232;2022-08-16T04:53:46;19.00;1.00
20174;DHT22;10246;50.620;7.232;2022-08-16T04:56:13;19.00;1.00
20174;DHT22;10246;50.620;7.232;2022-08-16T04:58:40;18.90;1.00
20174;DHT22;10246;50.620;7.232;2022-08-16T05:01:07;18.80;1.00
20174;DHT22;10246;50.620;7.232;2022-08-16T05:03:33;18.90;1.00
20174;DHT22;10246;50.620;7.232;2022-08-16T05:06:01;18.90;1.00
20174;DHT22;10246;50.620;7.232;2022-08-16T05:08:29;18.90;1.00
20174;DHT22;10246;50.620;7.232;2022-08-16T05:10:57;19.00;1.00
20174;DHT22;10246;50.620;7.232;2022-08-16T05:13:24;18.90;1.00
20174;DHT22;10246;50.620;7.232;2022-08-16T05:15:51;18.90;1.00
20174;DHT22;10246;50.620;7.232;2022-08-16T05:18:18;18.90;1.00
20174;DHT22;10246;50.620;7.232;2022-08-16T05:20:45;18.90;1.00
20174;DHT22;10246;50.620;7.232;2022-08-16T05:23:13;19.00;1.00
20174;DHT22;10246;50.620;7.232;2022-08-16T05:25:41;18.90;1.00
20174;DHT22;10246;50.620;7.232;2022-08-16T05:28:08;18.90;1.00
20174;DHT22;10246;50.620;7.232;2022-08-16T05:30:35;18.90;1.00
20174;DHT22;10246;50.620;7.232;2022-08-16T05:33:03;19.00;1.00
20174;DHT22;10246;50.620;7.232;2022-08-16T05:35:29;19.00;1.00
20174;DHT22;10246;50.620;7.232;2022-08-16T05:37:56;19.00;1.00
20174;DHT22;10246;50.620;7.232;2022-08-16T05:40:24;19.00;1.00
20174;DHT22;10246;50.620;7.232;2022-08-16T05:42:51;19.00;1.00
20174;DHT22;10246;50.620;7.232;2022-08-16T05:45:18;19.00;1.00
20174;DHT22;10246;50.620;7.232;2022-08-16T05:47:44;19.10;1.00
20174;DHT22;10246;50.620;7.232;2022-08-16T05:50:11;19.10;1.00
20174;DHT22;10246;50.620;7.232;2022-08-16T05:52:38;19.20;1.00
20174;DHT22;10246;50.620;7.232;2022-08-16T05:55:05;19.20;1.00
20174;DHT22;10246;50.620;7.232;2022-08-16T05:57:34;19.20;1.00
20174;DHT22;10246;50.620;7.232;2022-08-16T06:00:01;19.20;1.00
20174;DHT22;10246;50.620;7.232;2022-08-16T06:02:29;19.30;1.00
20174;DHT22;10246;50.620;7.232;2022-08-16T06:04:57;19.30;1.00
20174;DHT22;10246;50.620;7.232;2022-08-16T06:07:24;19.30;1.00
20174;DHT22;10246;50.620;7.232;2022-08-16T06:09:50;19.40;1.00
20174;DHT22;10246;50.620;7.232;2022-08-16T06:12:17;19.50;1.00
20174;DHT22;10246;50.620;7.232;2022-08-16T06:14:45;19.60;1.00
20174;DHT22;10246;50.620;7.232;2022-08-16T06:17:12;19.70;1.00
20174;DHT22;10246;50.620;7.232;2022-08-16T06:19:40;19.80;1.00
20174;DHT22;10246;50.620;7.232;2022-08-16T06:22:07;19.90;1.00
20174;DHT22;10246;50.620;7.232;2022-08-16T06:24:35;20.00;1.00
20174;DHT22;10246;50.620;7.232;2022-08-16T06:27:02;20.10;1.00
20174;DHT22;10246;50.620;7.232;2022-08-16T06:29:29;20.20;1.00
20174;DHT22;10246;50.620;7.232;2022-08-16T06:31:57;20.40;1.00
20174;DHT22;10246;50.620;7.232;2022-08-16T06:34:24;20.60;1.00
20174;DHT22;10246;50.620;7.232;2022-08-16T06:36:51;20.70;1.00
20174;DHT22;10246;50.620;7.232;2022-08-16T06:39:18;20.90;1.00
20174;DHT22;10246;50.620;7.232;2022-08-16T06:41:45;21.00;1.00
20174;DHT22;10246;50.620;7.232;2022-08-16T06:44:11;21.10;1.00
20174;DHT22;10246;50.620;7.232;2022-08-16T06:46:38;21.20;1.00
20174;DHT22;10246;50.620;7.232;2022-08-16T06:49:08;21.30;1.00
20174;DHT22;10246;50.620;7.232;2022-08-16T06:51:36;21.40;1.00
20174;DHT22;10246;50.620;7.232;2022-08-16T06:54:04;21.60;1.00
20174;DHT22;10246;50.620;7.232;2022-08-16T06:56:31;21.80;1.00
20174;DHT22;10246;50.620;7.232;2022-08-16T06:58:58;21.80;1.00
20174;DHT22;10246;50.620;7.232;2022-08-16T07:01:25;21.90;1.00
20174;DHT22;10246;50.620;7.232;2022-08-16T07:03:52;22.00;1.00
20174;DHT22;10246;50.620;7.232;2022-08-16T07:06:21;22.10;1.00
20174;DHT22;10246;50.620;7.232;2022-08-16T07:08:48;22.20;1.00
20174;DHT22;10246;50.620;7.232;2022-08-16T07:11:16;22.30;1.00
20174;DHT22;10246;50.620;7.232;2022-08-16T07:13:45;22.40;1.00
20174;DHT22;10246;50.620;7.232;2022-08-16T07:16:13;22.50;1.00
20174;DHT22;10246;50.620;7.232;2022-08-16T07:18:41;22.60;1.00
20174;DHT22;10246;50.620;7.232;2022-08-16T07:21:09;22.70;1.00
20174;DHT22;10246;50.620;7.232;2022-08-16T07:23:38;22.70;1.00
20174;DHT22;10246;50.620;7.232;2022-08-16T07:26:07;22.80;1.00
20174;DHT22;10246;50.620;7.232;2022-08-16T07:28:34;22.90;1.00
20174;DHT22;10246;50.620;7.232;2022-08-16T07:31:01;23.00;1.00
20174;DHT22;10246;50.620;7.232;2022-08-16T07:33:28;23.20;1.00
20174;DHT22;10246;50.620;7.232;2022-08-16T07:35:56;23.20;1.00
20174;DHT22;10246;50.620;7.232;2022-08-16T07:38:24;23.40;1.00
20174;DHT22;10246;50.620;7.232;2022-08-16T07:40:53;23.60;1.00
20174;DHT22;10246;50.620;7.232;2022-08-16T07:43:21;23.70;1.00
20174;DHT22;10246;50.620;7.232;2022-08-16T07:45:48;23.80;1.00
20174;DHT22;10246;50.620;7.232;2022-08-16T07:48:15;23.80;1.00
20174;DHT22;10246;50.620;7.232;2022-08-16T07:50:43;23.80;1.00
20174;DHT22;10246;50.620;7.232;2022-08-16T07:53:13;23.90;1.00
20174;DHT22;10246;50.620;7.232;2022-08-16T07:55:40;23.90;1.00
20174;DHT22;10246;50.620;7.232;2022-08-16T07:58:08;24.00;1.00
20174;DHT22;10246;50.620;7.232;2022-08-16T08:00:35;24.20;1.00
20174;DHT22;10246;50.620;7.232;2022-08-16T08:03:02;24.30;1.00
20174;DHT22;10246;50.620;7.232;2022-08-16T08:05:30;24.30;1.00
20174;DHT22;10246;50.620;7.232;2022-08-16T08:07:57;24.40;1.00
20174;DHT22;10246;50.620;7.232;2022-08-16T08:10:24;24.30;1.00
20174;DHT22;10246;50.620;7.232;2022-08-16T08:12:52;24.50;1.00
20174;DHT22;10246;50.620;7.232;2022-08-16T08:15:21;24.60;1.00
20174;DHT22;10246;50.620;7.232;2022-08-16T08:17:49;24.70;1.00
20174;DHT22;10246;50.620;7.232;2022-08-16T08:20:18;24.80;1.00
20174;DHT22;10246;50.620;7.232;2022-08-16T08:22:46;25.00;1.00
20174;DHT22;10246;50.620;7.232;2022-08-16T08:25:14;25.10;1.00
20174;DHT22;10246;50.620;7.232;2022-08-16T08:27:42;25.20;1.00
20174;DHT22;10246;50.620;7.232;2022-08-16T08:30:11;25.30;1.00
20174;DHT22;10246;50.620;7.232;2022-08-16T08:32:39;25.40;1.00
20174;DHT22;10246;50.620;7.232;2022-08-16T08:35:08;25.50;1.00
20174;DHT22;10246;50.620;7.232;2022-08-16T08:37:37;25.50;1.00
20174;DHT22;10246;50.620;7.232;2022-08-16T08:40:05;25.60;1.00
20174;DHT22;10246;50.620;7.232;2022-08-16T08:42:33;25.60;1.00
20174;DHT22;10246;50.620;7.232;2022-08-16T08:45:00;25.70;1.00
20174;DHT22;10246;50.620;7.232;2022-08-16T08:47:28;25.70;1.00
20174;DHT22;10246;50.620;7.232;2022-08-16T08:49:56;25.70;1.00
20174;DHT22;10246;50.620;7.232;2022-08-16T08:52:23;25.80;1.00
20174;DHT22;10246;50.620;7.232;2022-08-16T08:54:50;25.90;1.00
20174;DHT22;10246;50.620;7.232;2022-08-16T08:57:17;26.00;1.00
20174;DHT22;10246;50.620;7.232;2022-08-16T08:59:44;26.10;1.00
20174;DHT22;10246;50.620;7.232;2022-08-16T09:02:11;26.30;1.00
20174;DHT22;10246;50.620;7.232;2022-08-16T09:04:41;26.40;1.00
20174;DHT22;10246;50.620;7.232;2022-08-16T09:07:09;26.60;1.00
20174;DHT22;10246;50.620;7.232;2022-08-16T09:09:36;26.70;1.00
20174;DHT22;10246;50.620;7.232;2022-08-16T09:12:03;26.70;1.00
20174;DHT22;10246;50.620;7.232;2022-08-16T09:14:31;26.70;1.00
20174;DHT22;10246;50.620;7.232;2022-08-16T09:16:58;26.70;1.00
20174;DHT22;10246;50.620;7.232;2022-08-16T09:19:25;26.70;1.00
20174;DHT22;10246;50.620;7.232;2022-08-16T09:21:51;26.90;1.00
20174;DHT22;10246;50.620;7.232;2022-08-16T09:24:19;27.00;1.00
20174;DHT22;10246;50.620;7.232;2022-08-16T09:26:46;27.20;1.00
20174;DHT22;10246;50.620;7.232;2022-08-16T09:29:13;27.30;1.00
20174;DHT22;10246;50.620;7.232;2022-08-16T09:31:40;27.20;1.00
20174;DHT22;10246;50.620;7.232;2022-08-16T09:34:07;27.30;1.00
20174;DHT22;10246;50.620;7.232;2022-08-16T09:36:33;27.40;1.00
20174;DHT22;10246;50.620;7.232;2022-08-16T09:39:00;27.60;1.00
20174;DHT22;10246;50.620;7.232;2022-08-16T09:41:31;27.80;1.00
20174;DHT22;10246;50.620;7.232;2022-08-16T09:43:58;27.70;1.00
20174;DHT22;10246;50.620;7.232;2022-08-16T09:46:28;27.90;1.00
20174;DHT22;10246;50.620;7.232;2022-08-16T09:48:54;28.10;1.00
20174;DHT22;10246;50.620;7.232;2022-08-16T09:51:23;28.20;1.00
20174;DHT22;10246;50.620;7.232;2022-08-16T09:53:51;28.20;1.00
20174;DHT22;10246;50.620;7.232;2022-08-16T09:56:25;28.40;1.00
20174;DHT22;10246;50.620;7.232;2022-08-16T09:58:53;28.50;1.00
20174;DHT22;10246;50.620;7.232;2022-08-16T10:01:20;28.50;1.00
20174;DHT22;10246;50.620;7.232;2022-08-16T10:03:47;28.70;1.00
20174;DHT22;10246;50.620;7.232;2022-08-16T10:06:14;28.90;1.00
20174;DHT22;10246;50.620;7.232;2022-08-16T10:08:41;29.10;1.00
20174;DHT22;10246;50.620;7.232;2022-08-16T10:11:07;29.20;1.00
20174;DHT22;10246;50.620;7.232;2022-08-16T10:13:53;29.10;1.00
20174;DHT22;10246;50.620;7.232;2022-08-16T10:16:20;29.10;1.00
20174;DHT22;10246;50.620;7.232;2022-08-16T10:18:47;29.20;1.00
20174;DHT22;10246;50.620;7.232;2022-08-16T10:21:14;29.20;1.00
20174;DHT22;10246;50.620;7.232;2022-08-16T10:23:41;29.40;1.00
20174;DHT22;10246;50.620;7.232;2022-08-16T10:26:08;29.40;1.00
20174;DHT22;10246;50.620;7.232;2022-08-16T10:28:35;29.50;1.00
20174;DHT22;10246;50.620;7.232;2022-08-16T10:31:06;29.40;1.00
20174;DHT22;10246;50.620;7.232;2022-08-16T10:33:33;29.40;1.00
20174;DHT22;10246;50.620;7.232;2022-08-16T10:36:00;29.40;1.00
20174;DHT22;10246;50.620;7.232;2022-08-16T10:38:29;29.60;1.00
20174;DHT22;10246;50.620;7.232;2022-08-16T10:40:56;29.70;1.00
20174;DHT22;10246;50.620;7.232;2022-08-16T10:43:22;29.90;1.00
20174;DHT22;10246;50.620;7.232;2022-08-16T10:45:49;30.00;1.00
20174;DHT22;10246;50.620;7.232;2022-08-16T10:48:17;29.70;1.00
20174;DHT22;10246;50.620;7.232;2022-08-16T10:50:44;29.40;1.00
20174;DHT22;10246;50.620;7.232;2022-08-16T10:53:11;29.50;1.00
20174;DHT22;10246;50.620;7.232;2022-08-16T10:55:40;29.70;1.00
20174;DHT22;10246;50.620;7.232;2022-08-16T10:58:10;30.00;1.00
20174;DHT22;10246;50.620;7.232;2022-08-16T11:00:39;29.90;1.00
20174;DHT22;10246;50.620;7.232;2022-08-16T11:03:07;30.10;1.00
20174;DHT22;10246;50.620;7.232;2022-08-16T11:05:38;30.40;1.00
20174;DHT22;10246;50.620;7.232;2022-08-16T11:08:07;30.40;1.00
20174;DHT22;10246;50.620;7.232;2022-08-16T11:10:38;30.70;1.00
20174;DHT22;10246;50.620;7.232;2022-08-16T11:13:06;30.90;1.00
20174;DHT22;10246;50.620;7.232;2022-08-16T11:15:34;31.00;1.00
20174;DHT22;10246;50.620;7.232;2022-08-16T11:18:04;31.10;1.00
20174;DHT22;10246;50.620;7.232;2022-08-16T11:20:32;31.30;1.00
20174;DHT22;10246;50.620;7.232;2022-08-16T11:23:00;31.00;1.00
20174;DHT22;10246;50.620;7.232;2022-08-16T11:25:28;31.00;1.00
20174;DHT22;10246;50.620;7.232;2022-08-16T11:27:56;31.10;1.00
20174;DHT22;10246;50.620;7.232;2022-08-16T11:30:24;31.40;1.00
20174;DHT22;10246;50.620;7.232;2022-08-16T11:32:52;31.20;1.00
20174;DHT22;10246;50.620;7.232;2022-08-16T11:35:21;31.10;1.00
20174;DHT22;10246;50.620;7.232;2022-08-16T11:37:51;31.10;1.00
20174;DHT22;10246;50.620;7.232;2022-08-16T11:40:21;31.30;1.00
20174;DHT22;10246;50.620;7.232;2022-08-16T11:42:48;31.20;1.00
20174;DHT22;10246;50.620;7.232;2022-08-16T11:45:15;31.10;1.00
20174;DHT22;10246;50.620;7.232;2022-08-16T11:47:42;31.30;1.00
20174;DHT22;10246;50.620;7.232;2022-08-16T11:50:09;31.50;1.00
20174;DHT22;10246;50.620;7.232;2022-08-16T11:52:37;31.60;1.00
20174;DHT22;10246;50.620;7.232;2022-08-16T11:55:07;31.80;1.00
20174;DHT22;10246;50.620;7.232;2022-08-16T11:57:36;31.80;1.00
20174;DHT22;10246;50.620;7.232;2022-08-16T12:00:06;31.90;1.00
20174;DHT22;10246;50.620;7.232;2022-08-16T12:02:35;31.80;1.00
20174;DHT22;10246;50.620;7.232;2022-08-16T12:05:03;31.70;1.00
20174;DHT22;10246;50.620;7.232;2022-08-16T12:07:30;31.90;1.00
20174;DHT22;10246;50.620;7.232;2022-08-16T12:09:57;32.20;1.00
20174;DHT22;10246;50.620;7.232;2022-08-16T12:12:26;32.50;1.00
20174;DHT22;10246;50.620;7.232;2022-08-16T12:14:54;32.50;1.00
20174;DHT22;10246;50.620;7.232;2022-08-16T12:17:20;32.70;1.00
20174;DHT22;10246;50.620;7.232;2022-08-16T12:19:48;32.80;1.00
20174;DHT22;10246;50.620;7.232;2022-08-16T12:22:15;32.60;1.00
20174;DHT22;10246;50.620;7.232;2022-08-16T12:24:41;32.80;1.00
20174;DHT22;10246;50.620;7.232;2022-08-16T12:27:08;32.60;1.00
20174;DHT22;10246;50.620;7.232;2022-08-16T12:29:35;32.80;1.00
20174;DHT22;10246;50.620;7.232;2022-08-16T12:32:04;32.90;1.00
20174;DHT22;10246;50.620;7.232;2022-08-16T12:34:31;32.90;1.00
20174;DHT22;10246;50.620;7.232;2022-08-16T12:36:58;33.20;1.00
20174;DHT22;10246;50.620;7.232;2022-08-16T12:39:27;33.40;1.00
20174;DHT22;10246;50.620;7.232;2022-08-16T12:41:53;33.40;1.00
20174;DHT22;10246;50.620;7.232;2022-08-16T12:44:20;33.40;1.00
20174;DHT22;10246;50.620;7.232;2022-08-16T12:46:47;33.60;1.00
20174;DHT22;10246;50.620;7.232;2022-08-16T12:49:36;33.70;1.00
20174;DHT22;10246;50.620;7.232;2022-08-16T12:52:02;33.80;1.00
20174;DHT22;10246;50.620;7.232;2022-08-16T12:54:29;33.70;1.00
20174;DHT22;10246;50.620;7.232;2022-08-16T12:56:56;33.60;1.00
20174;DHT22;10246;50.620;7.232;2022-08-16T12:59:23;33.60;1.00
20174;DHT22;10246;50.620;7.232;2022-08-16T13:01:50;33.80;1.00
20174;DHT22;10246;50.620;7.232;2022-08-16T13:04:17;33.90;1.00
20174;DHT22;10246;50.620;7.232;2022-08-16T13:06:47;33.90;1.00
20174;DHT22;10246;50.620;7.232;2022-08-16T13:09:14;33.80;1.00
20174;DHT22;10246;50.620;7.232;2022-08-16T13:11:53;33.90;1.00
20174;DHT22;10246;50.620;7.232;2022-08-16T13:14:27;33.70;1.00
20174;DHT22;10246;50.620;7.232;2022-08-16T13:16:54;33.60;1.00
20174;DHT22;10246;50.620;7.232;2022-08-16T13:19:21;33.50;1.00
20174;DHT22;10246;50.620;7.232;2022-08-16T13:21:49;33.30;1.00
20174;DHT22;10246;50.620;7.232;2022-08-16T13:24:16;33.30;1.00
20174;DHT22;10246;50.620;7.232;2022-08-16T13:26:43;33.30;1.00
20174;DHT22;10246;50.620;7.232;2022-08-16T13:29:09;33.60;1.00
20174;DHT22;10246;50.620;7.232;2022-08-16T13:31:36;33.70;1.00
20174;DHT22;10246;50.620;7.232;2022-08-16T13:34:03;33.70;1.00
20174;DHT22;10246;50.620;7.232;2022-08-16T13:36:30;33.80;1.00
20174;DHT22;10246;50.620;7.232;2022-08-16T13:38:58;34.00;1.00
20174;DHT22;10246;50.620;7.232;2022-08-16T13:41:26;33.90;1.00
20174;DHT22;10246;50.620;7.232;2022-08-16T13:43:53;34.00;1.00
20174;DHT22;10246;50.620;7.232;2022-08-16T13:46:20;33.90;1.00
20174;DHT22;10246;50.620;7.232;2022-08-16T13:48:46;33.70;1.00
20174;DHT22;10246;50.620;7.232;2022-08-16T13:51:15;33.60;1.00
20174;DHT22;10246;50.620;7.232;2022-08-16T13:53:42;33.60;1.00
20174;DHT22;10246;50.620;7.232;2022-08-16T13:56:10;33.80;1.00
20174;DHT22;10246;50.620;7.232;2022-08-16T13:58:38;33.90;1.00
20174;DHT22;10246;50.620;7.232;2022-08-16T14:01:05;33.90;1.00
20174;DHT22;10246;50.620;7.232;2022-08-16T14:03:32;34.20;1.00
20174;DHT22;10246;50.620;7.232;2022-08-16T14:05:59;34.10;1.00
20174;DHT22;10246;50.620;7.232;2022-08-16T14:08:26;33.90;1.00
20174;DHT22;10246;50.620;7.232;2022-08-16T14:10:53;33.80;1.00
20174;DHT22;10246;50.620;7.232;2022-08-16T14:13:21;33.80;1.00
20174;DHT22;10246;50.620;7.232;2022-08-16T14:15:48;33.90;1.00
20174;DHT22;10246;50.620;7.232;2022-08-16T14:18:15;34.10;1.00
20174;DHT22;10246;50.620;7.232;2022-08-16T14:20:42;34.10;1.00
20174;DHT22;10246;50.620;7.232;2022-08-16T14:23:09;34.00;1.00
20174;DHT22;10246;50.620;7.232;2022-08-16T14:25:36;33.70;1.00
20174;DHT22;10246;50.620;7.232;2022-08-16T14:28:03;33.50;1.00
20174;DHT22;10246;50.620;7.232;2022-08-16T14:30:31;33.70;1.00
20174;DHT22;10246;50.620;7.232;2022-08-16T14:32:58;33.50;1.00
20174;DHT22;10246;50.620;7.232;2022-08-16T14:35:27;33.30;1.00
20174;DHT22;10246;50.620;7.232;2022-08-16T14:37:54;33.00;1.00
20174;DHT22;10246;50.620;7.232;2022-08-16T14:40:21;33.10;1.00
20174;DHT22;10246;50.620;7.232;2022-08-16T14:42:48;33.20;1.00
20174;DHT22;10246;50.620;7.232;2022-08-16T14:45:18;33.20;1.00
20174;DHT22;10246;50.620;7.232;2022-08-16T14:47:46;33.10;1.00
20174;DHT22;10246;50.620;7.232;2022-08-16T14:50:17;33.10;1.00
20174;DHT22;10246;50.620;7.232;2022-08-16T14:52:46;33.00;1.00
20174;DHT22;10246;50.620;7.232;2022-08-16T14:55:13;32.80;1.00
20174;DHT22;10246;50.620;7.232;2022-08-16T14:57:40;32.60;1.00
20174;DHT22;10246;50.620;7.232;2022-08-16T15:00:10;32.70;1.00
20174;DHT22;10246;50.620;7.232;2022-08-16T15:02:38;32.80;1.00
20174;DHT22;10246;50.620;7.232;2022-08-16T15:05:10;32.80;1.00
20174;DHT22;10246;50.620;7.232;2022-08-16T15:07:37;32.90;1.00
20174;DHT22;10246;50.620;7.232;2022-08-16T15:10:05;32.80;1.00
20174;DHT22;10246;50.620;7.232;2022-08-16T15:12:33;32.80;1.00
20174;DHT22;10246;50.620;7.232;2022-08-16T15:15:01;32.60;1.00
20174;DHT22;10246;50.620;7.232;2022-08-16T15:17:28;32.60;1.00
20174;DHT22;10246;50.620;7.232;2022-08-16T15:19:55;32.50;1.00
20174;DHT22;10246;50.620;7.232;2022-08-16T15:22:27;32.40;1.00
20174;DHT22;10246;50.620;7.232;2022-08-16T15:24:55;32.50;1.00
20174;DHT22;10246;50.620;7.232;2022-08-16T15:27:23;32.60;1.00
20174;DHT22;10246;50.620;7.232;2022-08-16T15:29:51;32.70;1.00
20174;DHT22;10246;50.620;7.232;2022-08-16T15:32:18;32.80;1.00
20174;DHT22;10246;50.620;7.232;2022-08-16T15:34:44;32.80;1.00
20174;DHT22;10246;50.620;7.232;2022-08-16T15:37:11;32.90;1.00
20174;DHT22;10246;50.620;7.232;2022-08-16T15:39:39;32.70;1.00
20174;DHT22;10246;50.620;7.232;2022-08-16T15:42:08;32.70;1.00
20174;DHT22;10246;50.620;7.232;2022-08-16T15:44:35;32.60;1.00
20174;DHT22;10246;50.620;7.232;2022-08-16T15:47:04;32.60;1.00
20174;DHT22;10246;50.620;7.232;2022-08-16T15:49:34;32.80;1.00